createdAt,value
2018-11-02T00:00:13.000Z,29
2018-11-02T00:01:13.000Z,29
2018-11-02T00:02:13.000Z,29
2018-11-02T00:03:13.000Z,30
2018-11-02T00:04:13.000Z,29
2018-11-02T00:06:13.000Z,29
2018-11-02T00:07:13.000Z,29
2018-11-02T00:08:13.000Z,29
2018-11-02T00:09:13.000Z,30
2018-11-02T00:10:13.000Z,29
2018-11-02T00:11:13.000Z,30
2018-11-02T00:12:13.000Z,30
2018-11-02T00:13:13.000Z,29
2018-11-02T00:14:13.000Z,29
2018-11-02T00:15:13.000Z,29
2018-11-02T00:16:13.000Z,29
2018-11-02T00:17:13.000Z,29
2018-11-02T00:18:13.000Z,29
2018-11-02T00:19:13.000Z,30
2018-11-02T00:20:13.000Z,30
2018-11-02T00:21:13.000Z,29
2018-11-02T00:23:13.000Z,29
2018-11-02T00:24:13.000Z,29
2018-11-02T00:25:13.000Z,30
2018-11-02T00:26:13.000Z,29
2018-11-02T00:27:13.000Z,29
2018-11-02T00:28:13.000Z,30
2018-11-02T00:29:13.000Z,29
2018-11-02T00:30:13.000Z,29
2018-11-02T00:31:13.000Z,29
2018-11-02T00:33:13.000Z,29
2018-11-02T00:34:13.000Z,29
2018-11-02T00:36:13.000Z,29
2018-11-02T00:37:13.000Z,30
2018-11-02T00:38:13.000Z,29
2018-11-02T00:39:13.000Z,30
2018-11-02T00:40:13.000Z,30
2018-11-02T00:41:13.000Z,29
2018-11-02T00:42:13.000Z,30
2018-11-02T00:43:13.000Z,29
2018-11-02T00:44:13.000Z,30
2018-11-02T00:45:13.000Z,29
2018-11-02T00:46:13.000Z,30
2018-11-02T00:47:13.000Z,29
2018-11-02T00:48:13.000Z,30
2018-11-02T00:49:13.000Z,30
2018-11-02T00:51:13.000Z,29
2018-11-02T00:52:13.000Z,30
2018-11-02T00:53:13.000Z,30
2018-11-02T00:54:13.000Z,29
2018-11-02T00:55:13.000Z,30
2018-11-02T00:56:13.000Z,29
2018-11-02T00:58:13.000Z,29
2018-11-02T00:59:13.000Z,29
2018-11-02T01:00:13.000Z,30
2018-11-02T01:01:13.000Z,30
2018-11-02T01:02:13.000Z,30
2018-11-02T01:03:13.000Z,29
2018-11-02T01:04:13.000Z,30
2018-11-02T01:06:13.000Z,29
2018-11-02T01:07:13.000Z,30
2018-11-02T01:09:13.000Z,29
2018-11-02T01:10:13.000Z,30
2018-11-02T01:12:13.000Z,29
2018-11-02T01:13:13.000Z,30
2018-11-02T01:14:13.000Z,29
2018-11-02T01:15:13.000Z,30
2018-11-02T01:16:13.000Z,30
2018-11-02T01:17:13.000Z,30
2018-11-02T01:18:13.000Z,30
2018-11-02T01:19:13.000Z,29
2018-11-02T01:20:13.000Z,30
2018-11-02T01:21:13.000Z,29
2018-11-02T01:22:13.000Z,30
2018-11-02T01:23:13.000Z,29
2018-11-02T01:24:13.000Z,30
2018-11-02T01:25:13.000Z,30
2018-11-02T01:26:13.000Z,29
2018-11-02T01:27:13.000Z,29
2018-11-02T01:28:13.000Z,29
2018-11-02T01:29:13.000Z,29
2018-11-02T01:30:13.000Z,29
2018-11-02T01:31:13.000Z,29
2018-11-02T01:32:13.000Z,29
2018-11-02T01:33:13.000Z,29
2018-11-02T01:34:13.000Z,29
2018-11-02T01:35:13.000Z,29
2018-11-02T01:37:13.000Z,29
2018-11-02T01:38:13.000Z,29
2018-11-02T01:39:13.000Z,30
2018-11-02T01:40:13.000Z,29
2018-11-02T01:41:13.000Z,29
2018-11-02T01:42:13.000Z,29
2018-11-02T01:43:13.000Z,29
2018-11-02T01:44:13.000Z,29
2018-11-02T01:45:13.000Z,29
2018-11-02T01:47:13.000Z,29
2018-11-02T01:48:13.000Z,29
2018-11-02T01:50:13.000Z,29
2018-11-02T01:51:13.000Z,29
2018-11-02T01:52:13.000Z,30
2018-11-02T01:53:13.000Z,29
2018-11-02T01:54:13.000Z,30
2018-11-02T01:55:13.000Z,29
2018-11-02T01:56:13.000Z,30
2018-11-02T01:57:13.000Z,29
2018-11-02T01:58:13.000Z,30
2018-11-02T01:59:13.000Z,30
2018-11-02T02:00:13.000Z,29
2018-11-02T02:01:13.000Z,30
2018-11-02T02:02:13.000Z,29
2018-11-02T02:03:13.000Z,30
2018-11-02T02:05:13.000Z,29
2018-11-02T02:06:13.000Z,30
2018-11-02T02:07:13.000Z,30
2018-11-02T02:09:13.000Z,29
2018-11-02T02:10:13.000Z,30
2018-11-02T02:11:13.000Z,30
2018-11-02T02:12:13.000Z,29
2018-11-02T02:13:13.000Z,30
2018-11-02T02:14:13.000Z,30
2018-11-02T02:15:13.000Z,29
2018-11-02T02:16:13.000Z,29
2018-11-02T02:17:13.000Z,29
2018-11-02T02:18:13.000Z,29
2018-11-02T02:19:13.000Z,29
2018-11-02T02:20:13.000Z,29
2018-11-02T02:21:13.000Z,29
2018-11-02T02:22:13.000Z,29
2018-11-02T02:23:13.000Z,30
2018-11-02T02:24:13.000Z,29
2018-11-02T02:25:13.000Z,29
2018-11-02T02:26:13.000Z,29
2018-11-02T02:27:13.000Z,29
2018-11-02T02:29:13.000Z,29
2018-11-02T02:30:13.000Z,29
2018-11-02T02:31:13.000Z,30
2018-11-02T02:32:13.000Z,29
2018-11-02T02:33:13.000Z,30
2018-11-02T02:34:13.000Z,30
2018-11-02T02:36:13.000Z,29
2018-11-02T02:37:13.000Z,29
2018-11-02T02:38:13.000Z,29
2018-11-02T02:39:13.000Z,29
2018-11-02T02:40:13.000Z,29
2018-11-02T02:41:13.000Z,30
2018-11-02T02:42:13.000Z,29
2018-11-02T02:43:13.000Z,29
2018-11-02T02:44:13.000Z,29
2018-11-02T02:45:13.000Z,29
2018-11-02T02:47:13.000Z,29
2018-11-02T02:48:13.000Z,30
2018-11-02T02:50:13.000Z,29
2018-11-02T02:51:13.000Z,30
2018-11-02T02:52:13.000Z,29
2018-11-02T02:53:13.000Z,30
2018-11-02T02:54:13.000Z,30
2018-11-02T02:55:13.000Z,30
2018-11-02T02:56:13.000Z,30
2018-11-02T02:57:13.000Z,30
2018-11-02T02:58:13.000Z,29
2018-11-02T02:59:13.000Z,29
2018-11-02T03:00:13.000Z,30
2018-11-02T03:01:13.000Z,30
2018-11-02T03:02:13.000Z,29
2018-11-02T03:03:13.000Z,29
2018-11-02T03:04:13.000Z,29
2018-11-02T03:05:13.000Z,29
2018-11-02T03:06:13.000Z,29
2018-11-02T03:07:13.000Z,29
2018-11-02T03:09:13.000Z,29
2018-11-02T03:10:13.000Z,29
2018-11-02T03:11:13.000Z,29
2018-11-02T03:12:13.000Z,29
2018-11-02T03:13:13.000Z,29
2018-11-02T03:14:13.000Z,30
2018-11-02T03:15:13.000Z,30
2018-11-02T03:16:13.000Z,29
2018-11-02T03:17:13.000Z,30
2018-11-02T03:18:13.000Z,30
2018-11-02T03:19:13.000Z,30
2018-11-02T03:20:13.000Z,29
2018-11-02T03:21:13.000Z,29
2018-11-02T03:22:13.000Z,29
2018-11-02T03:23:13.000Z,29
2018-11-02T03:25:13.000Z,29
2018-11-02T03:26:13.000Z,29
2018-11-02T03:28:13.000Z,29
2018-11-02T03:29:13.000Z,29
2018-11-02T03:30:13.000Z,29
2018-11-02T03:31:13.000Z,29
2018-11-02T03:33:13.000Z,29
2018-11-02T03:34:13.000Z,29
2018-11-02T03:35:13.000Z,29
2018-11-02T03:36:13.000Z,29
2018-11-02T03:38:13.000Z,29
2018-11-02T03:39:13.000Z,30
2018-11-02T03:40:13.000Z,29
2018-11-02T03:41:13.000Z,30
2018-11-02T03:42:13.000Z,30
2018-11-02T03:43:13.000Z,30
2018-11-02T03:44:13.000Z,29
2018-11-02T03:45:13.000Z,30
2018-11-02T03:46:13.000Z,30
2018-11-02T03:47:13.000Z,29
2018-11-02T03:48:13.000Z,29
2018-11-02T03:49:13.000Z,29
2018-11-02T03:51:13.000Z,29
2018-11-02T03:52:13.000Z,29
2018-11-02T03:53:13.000Z,29
2018-11-02T03:54:13.000Z,30
2018-11-02T03:55:13.000Z,29
2018-11-02T03:57:13.000Z,29
2018-11-02T03:58:13.000Z,30
2018-11-02T03:59:13.000Z,29
2018-11-02T04:00:13.000Z,30
2018-11-02T04:01:13.000Z,30
2018-11-02T04:02:13.000Z,30
2018-11-02T04:04:13.000Z,29
2018-11-02T04:05:13.000Z,30
2018-11-02T04:06:13.000Z,30
2018-11-02T04:07:13.000Z,29
2018-11-02T04:08:13.000Z,30
2018-11-02T04:09:13.000Z,29
2018-11-02T04:10:13.000Z,29
2018-11-02T04:12:13.000Z,29
2018-11-02T04:13:13.000Z,29
2018-11-02T04:14:13.000Z,29
2018-11-02T04:15:13.000Z,30
2018-11-02T04:16:13.000Z,30
2018-11-02T04:17:13.000Z,30
2018-11-02T04:18:13.000Z,29
2018-11-02T04:19:13.000Z,30
2018-11-02T04:20:13.000Z,29
2018-11-02T04:21:13.000Z,30
2018-11-02T04:22:13.000Z,29
2018-11-02T04:23:13.000Z,30
2018-11-02T04:24:13.000Z,29
2018-11-02T04:25:13.000Z,30
2018-11-02T04:26:13.000Z,30
2018-11-02T04:27:13.000Z,29
2018-11-02T04:28:13.000Z,30
2018-11-02T04:29:13.000Z,29
2018-11-02T04:30:13.000Z,30
2018-11-02T04:31:13.000Z,29
2018-11-02T04:32:13.000Z,30
2018-11-02T04:33:13.000Z,30
2018-11-02T04:34:13.000Z,29
2018-11-02T04:35:13.000Z,30
2018-11-02T04:37:13.000Z,29
2018-11-02T04:38:13.000Z,30
2018-11-02T04:39:13.000Z,30
2018-11-02T04:40:13.000Z,30
2018-11-02T04:42:13.000Z,30
2018-11-02T04:43:13.000Z,30
2018-11-02T04:44:13.000Z,30
2018-11-02T04:46:13.000Z,30
2018-11-02T04:47:13.000Z,30
2018-11-02T04:48:13.000Z,30
2018-11-02T04:49:13.000Z,30
2018-11-02T04:50:13.000Z,30
2018-11-02T04:51:13.000Z,30
2018-11-02T04:52:13.000Z,30
2018-11-02T04:53:13.000Z,30
2018-11-02T04:54:13.000Z,30
2018-11-02T04:55:13.000Z,30
2018-11-02T04:56:13.000Z,30
2018-11-02T04:57:13.000Z,30
2018-11-02T04:58:13.000Z,30
2018-11-02T04:59:13.000Z,30
2018-11-02T05:01:13.000Z,30
2018-11-02T05:02:13.000Z,30
2018-11-02T05:03:13.000Z,30
2018-11-02T05:04:13.000Z,30
2018-11-02T05:05:13.000Z,30
2018-11-02T05:06:13.000Z,30
2018-11-02T05:08:13.000Z,30
2018-11-02T05:10:13.000Z,30
2018-11-02T05:11:13.000Z,30
2018-11-02T05:12:13.000Z,30
2018-11-02T05:13:13.000Z,30
2018-11-02T05:14:13.000Z,31
2018-11-02T05:15:13.000Z,30
2018-11-02T05:16:13.000Z,30
2018-11-02T05:17:13.000Z,30
2018-11-02T05:18:13.000Z,30
2018-11-02T05:19:13.000Z,30
2018-11-02T05:20:13.000Z,30
2018-11-02T05:21:13.000Z,30
2018-11-02T05:23:13.000Z,30
2018-11-02T05:24:13.000Z,31
2018-11-02T05:25:13.000Z,31
2018-11-02T05:26:13.000Z,31
2018-11-02T05:28:13.000Z,31
2018-11-02T05:29:13.000Z,31
2018-11-02T05:31:13.000Z,31
2018-11-02T05:32:13.000Z,32
2018-11-02T05:33:13.000Z,32
2018-11-02T05:34:13.000Z,32
2018-11-02T05:35:13.000Z,32
2018-11-02T05:36:13.000Z,32
2018-11-02T05:37:13.000Z,32
2018-11-02T05:38:13.000Z,32
2018-11-02T05:39:13.000Z,32
2018-11-02T05:40:13.000Z,32
2018-11-02T05:41:13.000Z,32
2018-11-02T05:42:13.000Z,33
2018-11-02T05:43:13.000Z,32
2018-11-02T05:44:13.000Z,33
2018-11-02T05:46:13.000Z,33
2018-11-02T05:47:13.000Z,33
2018-11-02T05:48:13.000Z,33
2018-11-02T05:49:13.000Z,33
2018-11-02T05:50:13.000Z,33
2018-11-02T05:51:13.000Z,33
2018-11-02T05:52:13.000Z,33
2018-11-02T05:53:13.000Z,33
2018-11-02T05:54:13.000Z,33
2018-11-02T05:55:13.000Z,33
2018-11-02T05:56:13.000Z,33
2018-11-02T05:57:13.000Z,34
2018-11-02T05:58:13.000Z,34
2018-11-02T05:59:13.000Z,34
2018-11-02T06:00:13.000Z,34
2018-11-02T06:01:13.000Z,34
2018-11-02T06:02:13.000Z,34
2018-11-02T06:03:13.000Z,34
2018-11-02T06:04:13.000Z,34
2018-11-02T06:05:13.000Z,34
2018-11-02T06:06:13.000Z,34
2018-11-02T06:07:13.000Z,34
2018-11-02T06:08:13.000Z,34
2018-11-02T06:09:13.000Z,34
2018-11-02T06:11:13.000Z,34
2018-11-02T06:12:13.000Z,34
2018-11-02T06:13:13.000Z,34
2018-11-02T06:15:13.000Z,34
2018-11-02T06:16:13.000Z,34
2018-11-02T06:17:13.000Z,34
2018-11-02T06:18:13.000Z,34
2018-11-02T06:19:13.000Z,35
2018-11-02T06:20:13.000Z,34
2018-11-02T06:22:13.000Z,34
2018-11-02T06:23:13.000Z,34
2018-11-02T06:24:13.000Z,34
2018-11-02T06:26:13.000Z,34
2018-11-02T06:27:14.000Z,34
2018-11-02T06:28:14.000Z,34
2018-11-02T06:29:14.000Z,34
2018-11-02T06:30:14.000Z,34
2018-11-02T06:31:14.000Z,34
2018-11-02T06:32:14.000Z,34
2018-11-02T06:33:14.000Z,34
2018-11-02T06:34:14.000Z,34
2018-11-02T06:35:14.000Z,34
2018-11-02T06:36:14.000Z,33
2018-11-02T06:37:14.000Z,33
2018-11-02T06:38:14.000Z,33
2018-11-02T06:39:14.000Z,33
2018-11-02T06:40:14.000Z,33
2018-11-02T06:41:14.000Z,33
2018-11-02T06:42:14.000Z,33
2018-11-02T06:43:14.000Z,33
2018-11-02T06:44:14.000Z,33
2018-11-02T06:45:14.000Z,33
2018-11-02T06:46:14.000Z,33
2018-11-02T06:48:14.000Z,33
2018-11-02T06:49:14.000Z,33
2018-11-02T06:50:14.000Z,33
2018-11-02T06:51:14.000Z,33
2018-11-02T06:52:14.000Z,33
2018-11-02T06:53:14.000Z,33
2018-11-02T06:54:14.000Z,33
2018-11-02T06:56:14.000Z,32
2018-11-02T06:57:14.000Z,33
2018-11-02T06:58:14.000Z,32
2018-11-02T06:59:14.000Z,32
2018-11-02T07:00:14.000Z,32
2018-11-02T07:01:14.000Z,32
2018-11-02T07:02:14.000Z,32
2018-11-02T07:03:14.000Z,32
2018-11-02T07:04:14.000Z,32
2018-11-02T07:05:14.000Z,32
2018-11-02T07:07:14.000Z,32
2018-11-02T07:08:14.000Z,32
2018-11-02T07:09:14.000Z,32
2018-11-02T07:10:14.000Z,32
2018-11-02T07:11:14.000Z,32
2018-11-02T07:12:14.000Z,32
2018-11-02T07:13:14.000Z,32
2018-11-02T07:14:14.000Z,32
2018-11-02T07:15:14.000Z,32
2018-11-02T07:16:14.000Z,32
2018-11-02T07:17:14.000Z,32
2018-11-02T07:18:14.000Z,32
2018-11-02T07:19:14.000Z,32
2018-11-02T07:20:14.000Z,32
2018-11-02T07:21:14.000Z,32
2018-11-02T07:22:14.000Z,32
2018-11-02T07:23:14.000Z,32
2018-11-02T07:24:14.000Z,32
2018-11-02T07:25:14.000Z,32
2018-11-02T07:26:14.000Z,32
2018-11-02T07:27:14.000Z,32
2018-11-02T07:28:14.000Z,32
2018-11-02T07:29:14.000Z,32
2018-11-02T07:31:13.000Z,32
2018-11-02T07:32:13.000Z,32
2018-11-02T07:34:13.000Z,32
2018-11-02T07:35:13.000Z,33
2018-11-02T07:36:13.000Z,33
2018-11-02T07:37:13.000Z,33
2018-11-02T07:38:13.000Z,33
2018-11-02T07:39:13.000Z,33
2018-11-02T07:40:13.000Z,33
2018-11-02T07:41:13.000Z,33
2018-11-02T07:42:13.000Z,33
2018-11-02T07:44:13.000Z,32
2018-11-02T07:45:13.000Z,32
2018-11-02T07:46:13.000Z,32
2018-11-02T07:47:13.000Z,32
2018-11-02T07:48:13.000Z,32
2018-11-02T07:49:13.000Z,32
2018-11-02T07:50:13.000Z,32
2018-11-02T07:52:13.000Z,32
2018-11-02T07:53:13.000Z,32
2018-11-02T07:54:13.000Z,32
2018-11-02T07:55:13.000Z,32
2018-11-02T07:56:13.000Z,32
2018-11-02T07:57:13.000Z,32
2018-11-02T07:58:13.000Z,32
2018-11-02T07:59:13.000Z,33
2018-11-02T08:00:13.000Z,33
2018-11-02T08:01:13.000Z,33
2018-11-02T08:02:13.000Z,33
2018-11-02T08:03:13.000Z,33
2018-11-02T08:04:13.000Z,33
2018-11-02T08:05:13.000Z,33
2018-11-02T08:07:13.000Z,33
2018-11-02T08:08:13.000Z,33
2018-11-02T08:09:13.000Z,33
2018-11-02T08:10:13.000Z,33
2018-11-02T08:11:13.000Z,33
2018-11-02T08:12:13.000Z,33
2018-11-02T08:13:13.000Z,33
2018-11-02T08:14:13.000Z,33
2018-11-02T08:15:13.000Z,33
2018-11-02T08:16:13.000Z,33
2018-11-02T08:17:13.000Z,33
2018-11-02T08:18:13.000Z,33
2018-11-02T08:19:13.000Z,33
2018-11-02T08:20:13.000Z,33
2018-11-02T08:21:13.000Z,33
2018-11-02T08:22:13.000Z,33
2018-11-02T08:23:13.000Z,33
2018-11-02T08:24:13.000Z,32
2018-11-02T08:25:13.000Z,32
2018-11-02T08:26:13.000Z,32
2018-11-02T08:27:13.000Z,32
2018-11-02T08:28:13.000Z,32
2018-11-02T08:29:13.000Z,32
2018-11-02T08:30:13.000Z,32
2018-11-02T08:32:13.000Z,32
2018-11-02T08:33:13.000Z,32
2018-11-02T08:34:14.000Z,32
2018-11-02T08:36:14.000Z,31
2018-11-02T08:37:14.000Z,31
2018-11-02T08:38:14.000Z,31
2018-11-02T08:39:14.000Z,31
2018-11-02T08:40:14.000Z,31
2018-11-02T08:41:14.000Z,31
2018-11-02T08:42:14.000Z,31
2018-11-02T08:43:14.000Z,31
2018-11-02T08:44:14.000Z,31
2018-11-02T08:45:14.000Z,31
2018-11-02T08:46:14.000Z,31
2018-11-02T08:47:14.000Z,31
2018-11-02T08:48:14.000Z,31
2018-11-02T08:57:46.000Z,32
2018-11-02T08:58:46.000Z,33
2018-11-02T08:59:46.000Z,33
2018-11-02T09:00:46.000Z,33
2018-11-02T09:01:46.000Z,33
2018-11-02T09:02:46.000Z,32
2018-11-02T09:03:46.000Z,32
2018-11-02T09:04:46.000Z,33
2018-11-02T09:05:46.000Z,33
2018-11-02T09:06:46.000Z,32
2018-11-02T09:07:46.000Z,32
2018-11-02T09:08:46.000Z,32
2018-11-02T09:09:46.000Z,32
2018-11-02T09:10:46.000Z,32
2018-11-02T09:11:46.000Z,32
2018-11-02T09:12:46.000Z,32
2018-11-02T09:14:46.000Z,32
2018-11-02T09:15:46.000Z,32
2018-11-02T09:16:46.000Z,32
2018-11-02T09:17:46.000Z,33
2018-11-02T09:18:46.000Z,33
2018-11-02T09:19:46.000Z,32
2018-11-02T09:20:46.000Z,32
2018-11-02T09:21:46.000Z,32
2018-11-02T09:23:46.000Z,32
2018-11-02T09:24:46.000Z,33
2018-11-02T09:25:46.000Z,33
2018-11-02T09:27:46.000Z,32
2018-11-02T09:28:46.000Z,33
2018-11-02T09:29:46.000Z,33
2018-11-02T09:30:46.000Z,33
2018-11-02T09:31:46.000Z,33
2018-11-02T09:32:46.000Z,33
2018-11-02T09:33:46.000Z,33
2018-11-02T09:34:46.000Z,33
2018-11-02T09:35:46.000Z,33
2018-11-02T09:36:46.000Z,33
2018-11-02T09:37:45.000Z,33
2018-11-02T09:38:45.000Z,33
2018-11-02T09:39:45.000Z,33
2018-11-02T09:40:45.000Z,33
2018-11-02T09:41:45.000Z,33
2018-11-02T09:42:45.000Z,33
2018-11-02T09:43:45.000Z,33
2018-11-02T09:44:45.000Z,33
2018-11-02T09:46:45.000Z,33
2018-11-02T09:47:45.000Z,33
2018-11-02T09:48:45.000Z,33
2018-11-02T09:49:45.000Z,33
2018-11-02T09:50:45.000Z,33
2018-11-02T09:51:45.000Z,33
2018-11-02T09:53:45.000Z,33
2018-11-02T09:54:45.000Z,33
2018-11-02T09:55:45.000Z,32
2018-11-02T09:56:45.000Z,33
2018-11-02T09:57:45.000Z,32
2018-11-02T09:58:45.000Z,32
2018-11-02T09:59:45.000Z,32
2018-11-02T10:00:45.000Z,32
2018-11-02T10:01:45.000Z,32
2018-11-02T10:02:45.000Z,32
2018-11-02T10:03:45.000Z,32
2018-11-02T10:05:45.000Z,32
2018-11-02T10:06:45.000Z,32
2018-11-02T10:08:45.000Z,32
2018-11-02T10:09:45.000Z,32
2018-11-02T10:10:45.000Z,32
2018-11-02T10:11:45.000Z,32
2018-11-02T10:12:45.000Z,32
2018-11-02T10:13:45.000Z,32
2018-11-02T10:14:45.000Z,32
2018-11-02T10:15:45.000Z,32
2018-11-02T10:16:45.000Z,32
2018-11-02T10:17:45.000Z,32
2018-11-02T10:18:45.000Z,32
2018-11-02T10:19:45.000Z,32
2018-11-02T10:20:45.000Z,32
2018-11-02T10:21:45.000Z,32
2018-11-02T10:23:45.000Z,32
2018-11-02T10:24:45.000Z,32
2018-11-02T10:25:45.000Z,32
2018-11-02T10:27:45.000Z,32
2018-11-02T10:28:45.000Z,32
2018-11-02T10:29:45.000Z,32
2018-11-02T10:30:45.000Z,32
2018-11-02T10:31:45.000Z,32
2018-11-02T10:33:45.000Z,32
2018-11-02T10:34:45.000Z,32
2018-11-02T10:35:45.000Z,32
2018-11-02T10:37:45.000Z,32
2018-11-02T10:38:45.000Z,32
2018-11-02T10:39:45.000Z,32
2018-11-02T10:40:45.000Z,32
2018-11-02T10:41:46.000Z,32
2018-11-02T10:42:46.000Z,32
2018-11-02T10:43:46.000Z,32
2018-11-02T10:44:46.000Z,32
2018-11-02T10:45:46.000Z,32
2018-11-02T10:47:46.000Z,32
2018-11-02T10:48:46.000Z,32
2018-11-02T10:50:46.000Z,32
2018-11-02T10:51:46.000Z,32
2018-11-02T10:52:46.000Z,32
2018-11-02T10:53:46.000Z,32
2018-11-02T10:54:46.000Z,32
2018-11-02T10:56:46.000Z,32
2018-11-02T10:57:46.000Z,32
2018-11-02T10:58:46.000Z,32
2018-11-02T11:00:46.000Z,32
2018-11-02T11:01:46.000Z,32
2018-11-02T11:02:46.000Z,32
2018-11-02T11:03:46.000Z,32
2018-11-02T11:04:46.000Z,32
2018-11-02T11:05:46.000Z,32
2018-11-02T11:06:46.000Z,32
2018-11-02T11:07:46.000Z,32
2018-11-02T11:09:46.000Z,32
2018-11-02T11:11:46.000Z,31
2018-11-02T11:12:46.000Z,31
2018-11-02T11:13:46.000Z,30
2018-11-02T11:14:46.000Z,30
2018-11-02T11:16:46.000Z,30
2018-11-02T11:17:46.000Z,30
2018-11-02T11:18:46.000Z,30
2018-11-02T11:19:46.000Z,30
2018-11-02T11:20:46.000Z,30
2018-11-02T11:21:46.000Z,30
2018-11-02T11:22:46.000Z,30
2018-11-02T11:24:46.000Z,30
2018-11-02T11:25:46.000Z,30
2018-11-02T11:27:46.000Z,30
2018-11-02T11:28:46.000Z,30
2018-11-02T11:29:46.000Z,30
2018-11-02T11:30:46.000Z,30
2018-11-02T11:31:46.000Z,30
2018-11-02T11:33:46.000Z,30
2018-11-02T11:35:46.000Z,30
2018-11-02T11:36:46.000Z,30
2018-11-02T11:38:46.000Z,30
2018-11-02T11:39:46.000Z,30
2018-11-02T11:41:46.000Z,30
2018-11-02T11:43:46.000Z,30
2018-11-02T11:44:46.000Z,30
2018-11-02T11:45:46.000Z,30
2018-11-02T11:46:46.000Z,30
2018-11-02T11:47:46.000Z,30
2018-11-02T11:49:46.000Z,30
2018-11-02T11:50:46.000Z,30
2018-11-02T11:51:46.000Z,29
2018-11-02T11:52:46.000Z,30
2018-11-02T11:54:46.000Z,30
2018-11-02T11:55:46.000Z,30
2018-11-02T11:56:46.000Z,30
2018-11-02T11:57:46.000Z,30
2018-11-02T11:58:46.000Z,30
2018-11-02T11:59:46.000Z,30
2018-11-02T12:00:46.000Z,30
2018-11-02T12:02:46.000Z,30
2018-11-02T12:03:46.000Z,30
2018-11-02T12:04:46.000Z,30
2018-11-02T12:05:46.000Z,30
2018-11-02T12:06:46.000Z,30
2018-11-02T12:08:46.000Z,30
2018-11-02T12:09:46.000Z,30
2018-11-02T12:10:46.000Z,29
2018-11-02T12:11:46.000Z,29
2018-11-02T12:12:46.000Z,28
2018-11-02T12:13:46.000Z,28
2018-11-02T12:14:46.000Z,28
2018-11-02T12:15:46.000Z,28
2018-11-02T12:16:46.000Z,28
2018-11-02T12:17:46.000Z,28
2018-11-02T12:18:46.000Z,28
2018-11-02T12:20:46.000Z,28
2018-11-02T12:21:46.000Z,29
2018-11-02T12:22:46.000Z,29
2018-11-02T12:23:46.000Z,29
2018-11-02T12:24:46.000Z,29
2018-11-02T12:25:46.000Z,29
2018-11-02T12:26:46.000Z,29
2018-11-02T12:28:46.000Z,29
2018-11-02T12:29:46.000Z,29
2018-11-02T12:30:46.000Z,29
2018-11-02T12:31:46.000Z,29
2018-11-02T12:32:46.000Z,29
2018-11-02T12:33:46.000Z,29
2018-11-02T12:34:46.000Z,30
2018-11-02T12:35:46.000Z,29
2018-11-02T12:36:46.000Z,30
2018-11-02T12:37:46.000Z,30
2018-11-02T12:38:46.000Z,30
2018-11-02T12:39:46.000Z,30
2018-11-02T12:40:46.000Z,30
2018-11-02T12:41:46.000Z,30
2018-11-02T12:42:46.000Z,30
2018-11-02T12:43:46.000Z,30
2018-11-02T12:44:46.000Z,30
2018-11-02T12:45:46.000Z,30
2018-11-02T12:47:46.000Z,30
2018-11-02T12:48:46.000Z,30
2018-11-02T12:49:46.000Z,30
2018-11-02T12:50:46.000Z,30
2018-11-02T12:51:46.000Z,30
2018-11-02T12:52:46.000Z,30
2018-11-02T12:53:46.000Z,30
2018-11-02T12:55:46.000Z,30
2018-11-02T12:56:46.000Z,30
2018-11-02T12:57:46.000Z,30
2018-11-02T12:59:46.000Z,30
2018-11-02T13:00:46.000Z,30
2018-11-02T13:01:46.000Z,30
2018-11-02T13:02:46.000Z,30
2018-11-02T13:03:46.000Z,30
2018-11-02T13:04:46.000Z,31
2018-11-02T13:06:46.000Z,30
2018-11-02T13:07:46.000Z,30
2018-11-02T13:09:46.000Z,30
2018-11-02T13:10:46.000Z,31
2018-11-02T13:11:46.000Z,30
2018-11-02T13:12:46.000Z,31
2018-11-02T13:13:46.000Z,30
2018-11-02T13:14:46.000Z,31
2018-11-02T13:15:46.000Z,31
2018-11-02T13:17:46.000Z,31
2018-11-02T13:18:46.000Z,31
2018-11-02T13:19:46.000Z,31
2018-11-02T13:20:46.000Z,31
2018-11-02T13:21:46.000Z,31
2018-11-02T13:22:46.000Z,31
2018-11-02T13:23:46.000Z,31
2018-11-02T13:25:46.000Z,31
2018-11-02T13:26:46.000Z,31
2018-11-02T13:27:46.000Z,31
2018-11-02T13:28:46.000Z,31
2018-11-02T13:29:46.000Z,31
2018-11-02T13:30:46.000Z,31
2018-11-02T13:31:46.000Z,31
2018-11-02T13:33:46.000Z,31
2018-11-02T13:34:46.000Z,31
2018-11-02T13:35:46.000Z,31
2018-11-02T13:36:46.000Z,31
2018-11-02T13:37:46.000Z,31
2018-11-02T13:38:46.000Z,31
2018-11-02T13:39:46.000Z,31
2018-11-02T13:40:46.000Z,31
2018-11-02T13:41:46.000Z,31
2018-11-02T13:42:46.000Z,31
2018-11-02T13:43:46.000Z,31
2018-11-02T13:45:46.000Z,31
2018-11-02T13:46:46.000Z,31
2018-11-02T13:47:46.000Z,31
2018-11-02T13:48:46.000Z,31
2018-11-02T13:49:46.000Z,31
2018-11-02T13:50:46.000Z,31
2018-11-02T13:51:46.000Z,31
2018-11-02T13:52:45.000Z,31
2018-11-02T13:53:45.000Z,30
2018-11-02T13:54:45.000Z,30
2018-11-02T13:55:45.000Z,30
2018-11-02T13:56:45.000Z,30
2018-11-02T13:57:45.000Z,30
2018-11-02T13:58:45.000Z,30
2018-11-02T13:59:45.000Z,30
2018-11-02T14:01:45.000Z,30
2018-11-02T14:02:45.000Z,30
2018-11-02T14:03:45.000Z,30
2018-11-02T14:05:45.000Z,30
2018-11-02T14:06:45.000Z,30
2018-11-02T14:07:45.000Z,30
2018-11-02T14:08:45.000Z,30
2018-11-02T14:09:45.000Z,30
2018-11-02T14:10:45.000Z,30
2018-11-02T14:11:45.000Z,30
2018-11-02T14:12:45.000Z,30
2018-11-02T14:13:45.000Z,30
2018-11-02T14:14:45.000Z,30
2018-11-02T14:15:45.000Z,30
2018-11-02T14:16:45.000Z,30
2018-11-02T14:17:45.000Z,30
2018-11-02T14:18:45.000Z,30
2018-11-02T14:19:45.000Z,30
2018-11-02T14:20:45.000Z,30
2018-11-02T14:21:45.000Z,30
2018-11-02T14:22:45.000Z,30
2018-11-02T14:24:45.000Z,30
2018-11-02T14:25:45.000Z,30
2018-11-02T14:26:45.000Z,31
2018-11-02T14:27:45.000Z,31
2018-11-02T14:28:45.000Z,30
2018-11-02T14:29:45.000Z,31
2018-11-02T14:30:45.000Z,31
2018-11-02T14:32:45.000Z,30
2018-11-02T14:33:45.000Z,31
2018-11-02T14:35:45.000Z,30
2018-11-02T14:36:45.000Z,31
2018-11-02T14:38:45.000Z,31
2018-11-02T14:39:45.000Z,31
2018-11-02T14:40:45.000Z,31
2018-11-02T14:41:45.000Z,31
2018-11-02T14:42:45.000Z,31
2018-11-02T14:43:45.000Z,31
2018-11-02T14:44:45.000Z,31
2018-11-02T14:45:45.000Z,31
2018-11-02T14:46:45.000Z,31
2018-11-02T14:47:45.000Z,31
2018-11-02T14:48:45.000Z,31
2018-11-02T14:49:45.000Z,31
2018-11-02T14:50:45.000Z,31
2018-11-02T14:51:45.000Z,31
2018-11-02T14:52:45.000Z,31
2018-11-02T14:54:45.000Z,31
2018-11-02T14:55:45.000Z,31
2018-11-02T14:56:45.000Z,31
2018-11-02T14:57:45.000Z,31
2018-11-02T14:58:45.000Z,31
2018-11-02T14:59:45.000Z,31
2018-11-02T15:00:45.000Z,31
2018-11-02T15:01:45.000Z,31
2018-11-02T15:03:45.000Z,31
2018-11-02T15:04:45.000Z,31
2018-11-02T15:05:45.000Z,31
2018-11-02T15:06:45.000Z,31
2018-11-02T15:08:45.000Z,31
2018-11-02T15:10:45.000Z,31
2018-11-02T15:11:45.000Z,31
2018-11-02T15:12:45.000Z,31
2018-11-02T15:13:45.000Z,31
2018-11-02T15:15:45.000Z,31
2018-11-02T15:16:45.000Z,31
2018-11-02T15:17:45.000Z,31
2018-11-02T15:18:45.000Z,31
2018-11-02T15:19:45.000Z,31
2018-11-02T15:21:45.000Z,30
2018-11-02T15:23:45.000Z,30
2018-11-02T15:24:45.000Z,30
2018-11-02T15:25:45.000Z,30
2018-11-02T15:26:45.000Z,30
2018-11-02T15:27:45.000Z,30
2018-11-02T15:28:45.000Z,30
2018-11-02T15:30:45.000Z,30
2018-11-02T15:31:45.000Z,30
2018-11-02T15:32:45.000Z,30
2018-11-02T15:34:45.000Z,30
2018-11-02T15:36:45.000Z,30
2018-11-02T15:37:45.000Z,30
2018-11-02T15:39:45.000Z,30
2018-11-02T15:40:45.000Z,30
2018-11-02T15:41:45.000Z,30
2018-11-02T15:43:45.000Z,30
2018-11-02T15:44:45.000Z,30
2018-11-02T15:45:45.000Z,30
2018-11-02T15:47:45.000Z,30
2018-11-02T15:48:45.000Z,30
2018-11-02T15:49:45.000Z,30
2018-11-02T15:50:45.000Z,30
2018-11-02T15:51:45.000Z,30
2018-11-02T15:53:45.000Z,30
2018-11-02T15:54:45.000Z,30
2018-11-02T15:56:45.000Z,30
2018-11-02T15:57:45.000Z,30
2018-11-02T15:58:45.000Z,30
2018-11-02T15:59:45.000Z,30
2018-11-02T16:00:45.000Z,30
2018-11-02T16:02:45.000Z,30
2018-11-02T16:03:45.000Z,30
2018-11-02T16:04:45.000Z,30
2018-11-02T16:06:45.000Z,30
2018-11-02T16:07:45.000Z,30
2018-11-02T16:09:45.000Z,30
2018-11-02T16:11:45.000Z,30
2018-11-02T16:12:45.000Z,30
2018-11-02T16:13:45.000Z,30
2018-11-02T16:14:45.000Z,30
2018-11-02T16:15:45.000Z,30
2018-11-02T16:16:45.000Z,30
2018-11-02T16:17:45.000Z,30
2018-11-02T16:18:45.000Z,31
2018-11-02T16:19:45.000Z,30